Latest Coastal Weather Observations for Flinders Island Airport

IDT60701

Issued at 8:25 am EDT Sunday 26 October 2014 (issued every 10 minutes, with the page automatically refreshed every 10 minutes)

About coastal observations | Map of coastal stations | Coastal observations for TAS | Marine services | Other Formats
Station Details ID: 099005 Name: FLINDERS ISLAND AIRPORT Lat: -40.09 Lon: 148.00 Height: 9.0 m
Data from the previous 72 hours. | See also: Recent months at Flinders Island Airport
Date/Time
EDT
Temp

°C
Wind Pressure Rain
since 9am
mm
Weather Cloud Vis
km
Sea
Height
m
Swell
Dir
 
Speed
knots
Gust
knots
hPa Trend Height
m
Period
s
Dir
26/08:00am 14.1 WSW 10 11 1012.9 - 0.8 - Partly cloudy 10 - - - -
26/07:31am 14.2 WNW 6 7 1012.9 - 0.6 - Partly cloudy 6 - - - -
26/07:30am 14.2 WNW 6 7 1012.9 - 0.6 - Partly cloudy 6 - - - -
26/07:09am 14.2 NNW 3 5 1012.8 - 0.0 - Partly cloudy 5 - - - -
26/07:00am 14.4 CALM 0 0 1012.7 - 0.0 - Partly cloudy 10 - - - -
26/06:30am 14.0 CALM 0 0 1012.4 - 0.0 - Partly cloudy 10 - - - -
26/06:00am 13.7 CALM 0 0 1012.5 - 0.0 - Cloudy 10 - - - -
26/05:30am 14.0 E 4 5 1012.3 - 0.0 - Cloudy 10 - - - -
26/05:07am 13.7 ESE 4 5 1012.2 - 0.0 - Partly cloudy 10 - - - -
26/05:00am 13.8 ESE 1 4 1012.2 - 0.0 - Partly cloudy 10 - - - -
26/04:30am 14.0 E 4 5 1012.3 - 0.0 - Partly cloudy 10 - - - -
26/04:00am 14.2 E 5 7 1012.5 - 0.0 - Cloudy 10 - - - -
26/03:30am 14.0 SE 5 6 1013.2 - 0.0 - Partly cloudy 10 - - - -
26/03:00am 13.9 E 6 8 1013.2 - 0.0 - Mostly cloudy 10 - - - -
26/02:30am 14.5 ENE 6 7 1013.8 - 0.0 - Cloudy 10 - - - -
26/02:00am 14.7 ENE 7 9 1014.1 - 0.0 - Cloudy 10 - - - -
26/01:30am 14.7 NE 7 9 1014.7 - 0.0 - Partly cloudy 10 - - - -
26/01:00am 14.9 ENE 7 10 1015.3 - 0.0 - Cloudy 10 - - - -
26/12:30am 14.8 ENE 9 13 1015.4 - 0.0 - Partly cloudy 10 - - - -
26/12:00am 15.1 ENE 11 16 1015.6 - 0.0 - Mostly cloudy 10 - - - -
 
Date/Time
EDT
Temp

°C
Wind Pressure Rain
since 9am
mm
Weather Cloud Vis
km
Sea
Height
m
Swell
Dir
 
Speed
knots
Gust
knots
hPa Trend Height
m
Period
s
Dir
25/11:30pm 15.0 ENE 10 13 1015.4 - 0.0 - Partly cloudy 10 - - - -
25/11:10pm 15.0 ENE 9 13 1015.6 - 0.0 - Partly cloudy 10 - - - -
25/11:00pm 14.9 ENE 12 16 1015.6 - 0.0 - Partly cloudy 10 - - - -
25/10:30pm 15.2 ENE 13 18 1016.0 - 0.0 - Partly cloudy 10 - - - -
25/10:00pm 15.2 ENE 11 16 1016.7 - 0.0 - Partly cloudy 10 - - - -
25/09:30pm 15.6 ENE 9 13 1017.0 - 0.0 - Cloudy 10 - - - -
25/09:00pm 15.6 ENE 11 16 1016.9 - 0.0 - Cloudy 10 - - - -
25/08:30pm 15.5 E 8 10 1016.4 - 0.0 - Partly cloudy 10 - - - -
25/08:00pm 15.6 ENE 10 14 1015.8 - 0.0 - Partly cloudy 10 - - - -
25/07:30pm 15.6 ENE 10 16 1015.5 - 0.0 - Partly cloudy 10 - - - -
25/07:00pm 15.8 ENE 10 16 1015.4 - 0.0 - Partly cloudy 10 - - - -
25/06:30pm 15.9 ENE 6 12 1015.5 - 0.0 - Cloudy 10 - - - -
25/06:00pm 14.8 S 4 6 1015.5 - 0.0 - Cloudy 10 - - - -
25/05:30pm 15.1 SSW 4 6 1015.3 - 0.0 - Cloudy 10 - - - -
25/05:00pm 15.3 SSE 3 5 1015.1 - 0.0 - Cloudy 10 - - - -
25/04:30pm 15.1 SW 5 6 1015.2 - 0.0 - Cloudy 10 - - - -
25/04:00pm 14.9 SSW 5 7 1015.4 - 0.0 - Cloudy 10 - - - -
25/03:30pm 15.3 WSW 7 10 1015.4 - 0.0 - Partly cloudy 10 - - - -
25/03:00pm 15.3 SW 7 8 1015.2 - 0.0 - Mostly cloudy 10 - - - -
25/02:49pm 15.6 SW 8 10 1015.2 - 0.0 - Partly cloudy 10 - - - -
25/02:30pm 15.8 SW 8 10 1015.2 - 0.0 - Partly cloudy 10 - - - -
25/02:00pm 16.5 WSW 9 10 1015.5 - 0.0 - Partly cloudy 10 - - - -
25/01:30pm 16.4 SW 8 10 1015.6 - 0.0 - - 10 - - - -
25/01:00pm 16.1 WSW 8 10 1015.7 - 0.0 - - 10 - - - -
25/12:30pm 16.4 WSW 9 10 1015.8 - 0.0 - - 10 - - - -
25/12:00pm 16.4 W 9 11 1016.2 - 0.0 - Mostly clear 10 - - - -
25/11:45am 16.5 W 9 12 1016.3 - 0.0 - Partly cloudy 10 - - - -
25/11:31am 16.1 W 10 13 1016.5 - 0.0 - Partly cloudy 10 - - - -
25/11:30am 16.2 W 10 13 1016.5 - 0.0 - Partly cloudy 10 - - - -
25/11:05am 16.5 W 9 14 1016.4 - 0.0 - Partly cloudy 10 - - - -
25/11:00am 16.4 W 10 13 1016.5 - 0.0 - Partly cloudy 10 - - - -
25/10:30am 16.0 WNW 11 14 1016.4 - 0.0 - Partly cloudy 10 - - - -
25/10:00am 15.8 W 12 16 1016.3 - 0.0 - Cloudy 10 - - - -
25/09:30am 15.4 W 11 14 1016.0 - 0.0 - Cloudy 10 - - - -
25/09:00am 15.3 W 13 16 1015.8 - 0.0 - Mostly cloudy 10 - - - -
25/08:30am 15.0 W 17 19 1015.4 - 0.0 - Partly cloudy 10 - - - -
25/08:00am 14.7 W 15 18 1015.0 - 0.0 - Partly cloudy 10 - - - -
25/07:30am 14.3 W 13 17 1014.8 - 0.0 - Partly cloudy 10 - - - -
25/07:00am 14.0 W 15 19 1014.2 - 0.0 - Cloudy 10 - - - -
25/06:30am 13.9 W 13 17 1013.8 - 0.0 - Cloudy 10 - - - -
25/06:02am 13.9 W 15 18 1013.3 - 0.0 - Partly cloudy 10 - - - -
25/06:00am 14.0 W 15 18 1013.3 - 0.0 - Partly cloudy 10 - - - -
25/05:30am 13.7 WNW 15 19 1012.8 - 0.0 - - 10 - - - -
25/05:00am 13.9 WNW 16 19 1012.6 - 0.0 - - 10 - - - -
25/04:31am 13.9 W 15 19 1012.4 - 0.0 - Partly cloudy 9 - - - -
25/04:30am 13.8 W 15 19 1012.4 - 0.0 - Partly cloudy 9 - - - -
25/04:00am 14.1 W 17 21 1012.3 - 0.0 - Partly cloudy 9 - - - -
25/03:30am 14.0 W 18 22 1012.1 - 0.0 - Partly cloudy 9 - - - -
25/03:02am 14.0 W 17 22 1011.9 - 0.0 - Partly cloudy 9 - - - -
25/03:00am 14.0 W 17 22 1011.9 - 0.0 - Mostly clear 9 - - - -
25/02:30am 14.3 W 17 22 1012.0 - 0.0 - Partly cloudy 10 - - - -
25/02:00am 14.4 W 22 28 1012.0 - 0.0 - Cloudy 10 - - - -
25/01:30am 14.6 W 22 26 1011.9 - 0.0 - Cloudy 10 - - - -
25/01:28am 14.6 WSW 20 23 1011.9 - 0.0 - Cloudy 10 - - - -
25/01:00am 14.6 W 12 16 1011.8 - 0.0 - Partly cloudy 10 - - - -
25/12:30am 14.5 W 16 19 1011.9 - 0.0 - Cloudy 10 - - - -
25/12:00am 14.4 W 13 17 1011.6 - 0.0 - Cloudy 9 - - - -
 
Date/Time
EDT
Temp

°C
Wind Pressure Rain
since 9am
mm
Weather Cloud Vis
km
Sea
Height
m
Swell
Dir
 
Speed
knots
Gust
knots
hPa Trend Height
m
Period
s
Dir
24/11:30pm 14.5 W 9 14 1011.5 - 0.0 - Cloudy 10 - - - -
24/11:00pm 14.1 W 10 13 1011.6 - 0.0 - Cloudy 10 - - - -
24/10:49pm 14.1 W 12 15 1011.5 - 0.0 - Partly cloudy 10 - - - -
24/10:30pm 14.1 W 13 17 1011.5 - 0.0 - Cloudy 4 - - - -
24/10:00pm 14.3 W 17 21 1011.7 - 0.0 - Partly cloudy 3 - - - -
24/09:50pm 14.9 W 19 22 1011.8 - 0.0 - Partly cloudy 5 - - - -
24/09:30pm 15.9 WNW 12 16 1011.5 - 0.0 - Partly cloudy 10 - - - -
24/09:24pm 16.1 WNW 14 18 1011.4 - 0.0 - Partly cloudy 10 - - - -
24/09:00pm 16.4 NW 15 19 1011.0 - 0.0 - - 10 - - - -
24/08:30pm 17.3 WNW 13 17 1010.4 - 0.0 - - 10 - - - -
24/08:00pm 17.9 NW 13 17 1010.0 - 0.0 - - 10 - - - -
24/07:30pm 19.1 NW 10 13 1009.9 - 0.0 - - 10 - - - -
24/07:00pm 20.1 NW 8 11 1009.6 - 0.0 - Partly cloudy 10 - - - -
24/06:30pm 19.6 NNE 8 13 1008.7 - 0.0 - - 10 - - - -
24/06:00pm 19.6 NNE 11 16 1008.9 - 0.0 - - 10 - - - -
24/05:30pm 19.7 NE 15 20 1009.4 - 0.0 - Partly cloudy 10 - - - -
24/05:00pm 19.4 NNE 18 22 1009.4 - 0.0 - - 10 - - - -
24/04:45pm 19.7 NNE 20 25 1009.3 - 0.0 - Partly cloudy 10 - - - -
24/04:30pm 19.9 NE 18 24 1009.4 - 0.0 - Partly cloudy 10 - - - -
24/04:00pm 19.9 NE 20 28 1009.6 - 0.0 - Partly cloudy 10 - - - -
24/03:30pm 20.2 NE 22 29 1010.0 - 0.0 - Partly cloudy 10 - - - -
24/03:00pm 19.4 NE 22 28 1010.6 - 0.0 - Mostly cloudy 10 - - - -
24/02:30pm 19.6 NE 20 30 1011.0 - 0.0 - Cloudy 10 - - - -
24/02:16pm 19.0 NE 19 30 1011.3 - 0.0 - Cloudy 10 - - - -
24/02:00pm 19.0 ENE 19 28 1011.6 - 0.0 - Cloudy 10 - - - -
24/01:51pm 18.8 ENE 18 28 1011.8 - 0.0 - Cloudy 10 - - - -
24/01:30pm 18.4 ENE 20 29 1011.9 - 0.0 - Cloudy 10 - - - -
24/01:00pm 17.9 ENE 20 28 1012.2 - 0.0 - Cloudy 10 - - - -
24/12:30pm 18.0 ENE 20 29 1012.5 - 0.0 - Cloudy 10 - - - -
24/12:00pm 17.8 ENE 19 29 1012.8 - 0.0 - Cloudy 10 - - - -
24/11:36am 17.8 ENE 20 30 1013.5 - 0.0 - Partly cloudy 10 - - - -
24/11:30am 17.9 ENE 20 28 1013.4 - 0.0 - Cloudy 10 - - - -
24/11:07am 17.3 ENE 21 31 1013.7 - 0.0 - Partly cloudy 10 - - - -
24/11:00am 17.3 ENE 22 31 1013.9 - 0.0 - Partly cloudy 10 - - - -
24/10:32am 17.3 ENE 20 30 1014.3 - 0.0 - Cloudy 10 - - - -
24/10:30am 17.4 ENE 20 29 1014.3 - 0.0 - Partly cloudy 10 - - - -
24/10:00am 17.0 ENE 17 27 1014.9 - 0.0 - Partly cloudy 10 - - - -
24/09:30am 16.1 ENE 16 27 1015.5 - 0.0 - Cloudy 6 - - - -
24/09:29am 16.2 ENE 15 26 1015.6 - 0.0 - Cloudy 6 - - - -
24/09:25am 16.2 ENE 15 22 1015.7 - 0.0 - Cloudy 6 - - - -
24/09:18am 16.1 ENE 18 28 1015.8 - 0.0 - Cloudy 6 - - - -
24/09:10am 16.1 E 19 27 1015.8 - 0.0 - Cloudy 5 - - - -
24/09:00am 16.1 ENE 18 28 1016.0 - 0.2 - Cloudy 8 - - - -
24/08:30am 16.0 ENE 18 28 1016.7 - 0.2 - Cloudy 8 - - - -
24/08:07am 15.7 E 15 29 1016.7 - 0.2 - Cloudy 9 - - - -
24/08:00am 15.7 E 15 22 1016.8 - 0.2 - Cloudy 8 - - - -
24/07:30am 15.3 E 19 29 1016.9 - 0.2 - Cloudy - - - - -
24/07:21am 15.2 ENE 18 29 1017.1 - 0.2 - Cloudy - - - - -
24/07:00am 15.0 E 19 28 1017.2 - 0.0 - Cloudy - - - - -
24/06:52am 15.0 E 18 28 1017.3 - 0.0 - Cloudy - - - - -
24/06:30am 14.9 E 18 24 1017.3 - 0.0 - Cloudy - - - - -
24/06:00am 14.6 E 19 30 1017.4 - 0.0 - Mostly cloudy - - - - -
24/05:33am 14.5 E 19 31 1017.5 - 0.0 - Cloudy - - - - -
24/05:30am 14.4 E 18 25 1017.5 - 0.0 - Cloudy - - - - -
24/05:03am 14.4 E 16 28 1017.8 - 0.0 - Cloudy - - - - -
24/05:00am 14.4 E 15 23 1018.0 - 0.0 - Cloudy - - - - -
24/04:54am 14.4 E 16 26 1018.0 - 0.0 - Cloudy - - - - -
24/04:30am 14.2 E 17 24 1018.0 - 0.0 - Partly cloudy - - - - -
24/04:29am 14.2 E 17 26 1018.1 - 0.0 - Partly cloudy - - - - -
24/04:00am 14.1 E 17 29 1018.5 - 0.0 - Cloudy - - - - -
24/03:42am 14.0 E 17 28 1018.8 - 0.0 - Cloudy 5 - - - -
24/03:41am 14.0 E 16 24 1018.9 - 0.0 - Cloudy 5 - - - -
24/03:36am 13.9 E 16 24 1019.1 - 0.0 - Cloudy 6 - - - -
24/03:30am 13.8 E 17 23 1019.2 - 0.0 - Cloudy 6 - - - -
24/03:15am 13.7 E 16 24 1019.5 - 0.0 - Cloudy 5 - - - -
24/03:06am 13.7 E 16 29 1019.6 - 0.0 - Cloudy 7 - - - -
24/03:00am 13.7 E 16 29 1019.7 - 0.0 - Cloudy 6 - - - -
24/02:51am 13.8 E 17 23 1019.9 - 0.0 - Cloudy 5 - - - -
24/02:30am 14.1 E 16 26 1019.9 - 0.0 - Cloudy 10 - - - -
24/02:20am 14.2 E 15 26 1020.0 - 0.0 - Cloudy 10 - - - -
24/02:00am 14.2 E 14 20 1020.3 - 0.0 - Cloudy 10 - - - -
24/01:30am 14.2 E 15 21 1020.8 - 0.0 - Cloudy 10 - - - -
24/01:06am 14.1 E 15 25 1021.1 - 0.0 - Cloudy 10 - - - -
24/01:00am 14.1 E 15 21 1021.1 - 0.0 - Cloudy 10 - - - -
24/12:30am 14.1 E 14 22 1021.7 - 0.0 - Cloudy 10 - - - -
24/12:17am 14.1 E 13 20 1021.9 - 0.0 - Cloudy 10 - - - -
24/12:00am 14.1 E 11 17 1022.2 - 0.0 - Cloudy 10 - - - -
 
Date/Time
EDT
Temp

°C
Wind Pressure Rain
since 9am
mm
Weather Cloud Vis
km
Sea
Height
m
Swell
Dir
 
Speed
knots
Gust
knots
hPa Trend Height
m
Period
s
Dir
23/11:30pm 14.0 E 12 21 1022.5 - 0.0 - Partly cloudy 10 - - - -
23/11:00pm 13.7 E 13 21 1022.8 - 0.0 - Partly cloudy 10 - - - -
23/10:30pm 13.7 E 12 21 1022.9 - 0.0 - Partly cloudy 10 - - - -
23/10:00pm 13.5 E 13 22 1023.3 - 0.0 - Partly cloudy 10 - - - -
23/09:30pm 13.3 E 17 24 1023.4 - 0.0 - Partly cloudy 10 - - - -
23/09:00pm 13.3 E 13 19 1023.3 - 0.0 - Cloudy 10 - - - -
23/08:30pm 13.2 E 12 20 1022.9 - 0.0 - Partly cloudy 10 - - - -
23/08:00pm 13.2 E 11 19 1022.6 - 0.0 - - 10 - - - -
23/07:30pm 13.5 E 11 18 1022.7 - 0.0 - Cloudy 10 - - - -
23/07:00pm 13.6 E 12 19 1022.7 - 0.0 - Cloudy 10 - - - -
23/06:30pm 13.8 E 9 17 1022.5 - 0.0 - Cloudy 10 - - - -
23/06:00pm 13.9 E 13 23 1022.2 - 0.0 - Partly cloudy 10 - - - -
23/05:30pm 14.2 E 13 22 1022.2 - 0.0 - Partly cloudy 10 - - - -
23/05:00pm 14.8 E 10 17 1022.2 - 0.0 - Cloudy 10 - - - -
23/04:30pm 15.1 E 13 23 1022.4 - 0.0 - Partly cloudy 10 - - - -
23/04:00pm 15.9 E 15 22 1022.1 - 0.0 - Partly cloudy 10 - - - -
23/03:30pm 16.0 E 17 28 1021.9 - 0.0 - - 10 - - - -
23/03:08pm 16.1 ESE 15 27 1022.0 - 0.0 - - 10 - - - -
23/03:00pm 17.1 ESE 13 28 1022.1 - 0.0 - - 10 - - - -
23/02:30pm 16.8 E 15 28 1021.9 - 0.0 - - 10 - - - -
23/02:00pm 17.0 E 16 32 1021.9 - 0.0 - - 10 - - - -
23/01:30pm 17.0 ESE 17 31 1021.9 - 0.0 - - 10 - - - -
23/01:00pm 16.6 E 20 32 1021.8 - 0.0 - - 10 - - - -
23/12:30pm 16.7 E 18 31 1021.8 - 0.0 - - 10 - - - -
23/12:01pm 16.4 ESE 18 28 1022.0 - 0.0 - - 10 - - - -
23/12:00pm 16.7 ESE 19 28 1022.1 - 0.0 - - 10 - - - -
23/11:30am 16.1 ESE 16 27 1022.3 - 0.0 - - 10 - - - -
23/11:10am 16.4 ESE 15 26 1022.4 - 0.0 - Partly cloudy 10 - - - -
23/11:00am 16.5 ESE 13 27 1022.4 - 0.0 - Partly cloudy 10 - - - -
23/10:53am 16.1 ESE 15 27 1022.5 - 0.0 - Partly cloudy 10 - - - -
23/10:30am 16.0 ESE 13 26 1022.5 - 0.0 - Partly cloudy 10 - - - -
23/10:06am 15.8 ESE 13 22 1022.5 - 0.0 - Partly cloudy 10 - - - -
23/10:03am 15.3 ESE 13 25 1022.5 - 0.0 - Partly cloudy 10 - - - -
23/10:00am 16.3 ESE 14 25 1022.5 - 0.0 - Partly cloudy 10 - - - -
23/09:49am 15.7 ESE 15 26 1022.3 - 0.0 - Partly cloudy 10 - - - -
23/09:30am 15.8 ESE 12 27 1022.1 - 0.0 - Partly cloudy 10 - - - -
23/09:13am 15.5 ESE 13 24 1021.9 - 0.0 - Partly cloudy 10 - - - -
23/09:04am 15.5 ESE 15 29 1021.7 - 0.0 - Partly cloudy 10 - - - -
23/09:00am 15.5 ESE 14 29 1021.6 - 0.0 - Mostly cloudy 10 - - - -
23/08:30am 14.8 ESE 11 24 1021.0 - 0.0 - Partly cloudy 10 - - - -

Other Formats:

Comma delimited format used in spreadsheet applications
http://www.bom.gov.au/fwo/IDT60701/IDT60701.94980.axf

JavaScript Object Notation format (JSON) in row-major order
http://www.bom.gov.au/fwo/IDT60701/IDT60701.94980.json